createdAt,value
2023-03-19T00:02:16.240Z,10.40
2023-03-19T00:07:20.364Z,10.20
2023-03-19T00:12:23.558Z,9.30
2023-03-19T00:17:26.990Z,10.40
2023-03-19T00:22:29.883Z,10.30
2023-03-19T00:27:32.792Z,8.80
2023-03-19T00:32:36.829Z,10.10
2023-03-19T00:37:40.039Z,9.20
2023-03-19T00:42:44.992Z,10.50
2023-03-19T00:47:48.414Z,10.00
2023-03-19T00:52:52.472Z,11.60
2023-03-19T00:57:56.230Z,9.90
2023-03-19T01:02:59.636Z,9.90
2023-03-19T01:08:02.879Z,11.00
2023-03-19T01:13:05.787Z,11.80
2023-03-19T01:18:10.627Z,10.90
2023-03-19T01:23:13.532Z,10.80
2023-03-19T01:28:16.436Z,11.30
2023-03-19T01:33:20.790Z,11.80
2023-03-19T01:38:23.990Z,11.90
2023-03-19T01:43:32.843Z,12.20
2023-03-19T01:48:38.822Z,11.60
2023-03-19T01:53:45.910Z,10.60
2023-03-19T01:58:50.963Z,10.70
2023-03-19T02:03:54.171Z,11.40
2023-03-19T02:08:58.515Z,12.00
2023-03-19T02:14:01.412Z,10.20
2023-03-19T02:19:10.007Z,12.50
2023-03-19T02:24:19.612Z,11.60
2023-03-19T02:29:22.515Z,10.40
2023-03-19T02:34:25.723Z,11.70
2023-03-19T02:39:34.975Z,9.70
2023-03-19T02:44:37.993Z,10.90
2023-03-19T02:49:41.093Z,11.00
2023-03-19T02:54:43.995Z,11.60
2023-03-19T02:59:46.900Z,11.90
2023-03-19T03:04:49.807Z,10.80
2023-03-19T03:09:52.925Z,9.80
2023-03-19T03:14:55.823Z,12.40
2023-03-19T03:19:58.729Z,13.00
2023-03-19T03:25:01.633Z,12.00
2023-03-19T03:30:10.830Z,11.80
2023-03-19T03:35:16.403Z,11.90
2023-03-19T03:40:19.364Z,12.60
2023-03-19T03:45:22.362Z,11.30
2023-03-19T03:50:25.272Z,11.90
2023-03-19T03:55:28.991Z,13.50
2023-03-19T04:00:32.447Z,12.50
2023-03-19T04:05:36.643Z,13.40
2023-03-19T04:10:42.624Z,13.50
2023-03-19T04:15:45.520Z,12.20
2023-03-19T04:20:48.945Z,13.70
2023-03-19T04:25:52.488Z,11.80
2023-03-19T04:31:02.955Z,10.60
2023-03-19T04:36:07.209Z,11.00
2023-03-19T04:41:11.102Z,13.20
2023-03-19T04:46:14.782Z,13.00
2023-03-19T04:51:18.039Z,12.50
2023-03-19T04:56:21.162Z,13.10
2023-03-19T05:01:24.602Z,11.40
2023-03-19T05:06:27.673Z,11.30
2023-03-19T05:11:31.294Z,11.60
2023-03-19T05:16:35.932Z,11.90
2023-03-19T05:21:39.261Z,11.90
2023-03-19T05:26:42.150Z,13.90
2023-03-19T05:31:45.052Z,12.30
2023-03-19T05:36:48.062Z,12.60
2023-03-19T05:41:50.964Z,13.10
2023-03-19T05:46:53.866Z,11.30
2023-03-19T05:51:56.772Z,11.70
2023-03-19T05:56:59.776Z,12.50
2023-03-19T06:02:02.682Z,11.00
2023-03-19T06:07:06.714Z,14.20
2023-03-19T06:12:10.025Z,13.40
2023-03-19T06:17:12.929Z,11.80
2023-03-19T06:22:15.833Z,13.60
2023-03-19T06:27:18.939Z,13.60
2023-03-19T06:32:21.847Z,15.10
2023-03-19T06:37:24.870Z,10.90
2023-03-19T06:42:28.008Z,14.20
2023-03-19T06:47:31.282Z,14.10
2023-03-19T06:52:34.711Z,13.40
2023-03-19T06:57:38.018Z,14.00
2023-03-19T07:02:41.137Z,12.90
2023-03-19T07:07:44.434Z,13.70
2023-03-19T07:12:47.847Z,15.40
2023-03-19T07:17:50.755Z,14.90
2023-03-19T07:22:54.377Z,13.70
2023-03-19T07:27:57.490Z,15.20
2023-03-19T07:33:00.417Z,14.60
2023-03-19T07:38:03.592Z,14.80
2023-03-19T07:43:06.905Z,15.90
2023-03-19T07:48:09.808Z,15.40
2023-03-19T07:53:13.329Z,15.20
2023-03-19T07:58:17.258Z,14.60
2023-03-19T08:03:20.278Z,16.50
2023-03-19T08:08:23.165Z,18.10
2023-03-19T08:13:26.173Z,17.30
2023-03-19T08:18:29.090Z,16.50
2023-03-19T08:23:32.081Z,16.10
2023-03-19T08:28:35.909Z,16.00
2023-03-19T08:33:40.027Z,16.30
2023-03-19T08:38:43.895Z,15.00
2023-03-19T08:43:47.385Z,17.10
2023-03-19T08:48:50.594Z,15.90
2023-03-19T08:53:53.507Z,16.40
2023-03-19T08:58:57.639Z,15.70
2023-03-19T09:04:01.361Z,15.60
2023-03-19T09:09:04.330Z,15.70
2023-03-19T09:14:07.888Z,15.80
2023-03-19T09:19:11.256Z,14.50
2023-03-19T09:24:14.201Z,14.10
2023-03-19T09:29:17.132Z,15.90
2023-03-19T09:34:20.011Z,16.20
2023-03-19T09:39:22.915Z,16.30
2023-03-19T09:44:28.595Z,16.60
2023-03-19T09:49:38.649Z,16.70
2023-03-19T09:55:11.756Z,15.30
2023-03-19T10:00:32.696Z,14.50
2023-03-19T10:06:03.557Z,14.90
2023-03-19T10:11:35.958Z,14.10
2023-03-19T10:16:42.498Z,14.40
2023-03-19T10:22:07.345Z,14.10
2023-03-19T10:27:14.873Z,14.10
2023-03-19T10:32:19.721Z,15.00
2023-03-19T10:37:29.285Z,14.20
2023-03-19T10:42:54.105Z,14.30
2023-03-19T10:47:58.745Z,12.50
2023-03-19T10:58:22.888Z,11.60
2023-03-19T11:03:33.243Z,12.30
2023-03-19T11:08:39.733Z,11.50
2023-03-19T11:13:42.654Z,11.60
2023-03-19T11:18:49.701Z,11.50
2023-03-19T11:23:59.420Z,11.20
2023-03-19T11:29:04.849Z,10.40
2023-03-19T11:34:41.578Z,9.90
2023-03-19T11:39:52.682Z,9.50
2023-03-19T11:44:55.583Z,9.00
2023-03-19T11:50:05.414Z,9.20
2023-03-19T11:55:36.276Z,8.60
2023-03-19T12:00:55.297Z,7.20
2023-03-19T12:06:45.329Z,7.20
2023-03-19T12:12:18.319Z,7.50
2023-03-19T12:17:45.912Z,6.50
2023-03-19T12:22:59.451Z,7.20
2023-03-19T12:28:19.049Z,7.10
2023-03-19T12:33:44.783Z,7.50
2023-03-19T12:38:51.868Z,6.00
2023-03-19T12:44:02.167Z,6.90
2023-03-19T12:49:14.494Z,7.00
2023-03-19T12:54:38.898Z,6.00
2023-03-19T12:59:44.669Z,7.20
2023-03-19T13:04:55.277Z,8.70
2023-03-19T13:10:05.345Z,9.10
2023-03-19T13:15:14.386Z,9.00
2023-03-19T13:20:31.797Z,10.60
2023-03-19T13:25:43.054Z,9.60
2023-03-19T13:31:01.646Z,8.50
2023-03-19T13:36:08.134Z,8.30
2023-03-19T13:41:29.619Z,8.70
2023-03-19T13:46:39.137Z,8.50
2023-03-19T13:51:49.203Z,8.20
2023-03-19T13:57:08.868Z,8.50
2023-03-19T14:02:26.730Z,9.40
2023-03-19T14:07:41.814Z,8.80
2023-03-19T14:12:45.618Z,9.10
2023-03-19T14:17:48.427Z,9.20
2023-03-19T14:23:06.590Z,9.70
2023-03-19T14:28:11.880Z,9.80
2023-03-19T14:33:23.346Z,10.70
2023-03-19T14:38:38.446Z,11.30
2023-03-19T14:44:08.685Z,10.50
2023-03-19T14:49:39.967Z,10.70
2023-03-19T14:54:49.415Z,12.90
2023-03-19T14:59:53.445Z,13.00
2023-03-19T15:04:59.466Z,13.90
2023-03-19T15:10:06.430Z,13.60
2023-03-19T15:15:22.508Z,24.10
2023-03-19T15:20:26.871Z,15.80
2023-03-19T15:25:29.986Z,17.80
2023-03-19T15:30:40.119Z,16.40
2023-03-19T15:36:09.161Z,19.90
2023-03-19T15:41:13.209Z,21.60
2023-03-19T15:46:22.796Z,25.70
2023-03-19T15:51:27.005Z,27.70
2023-03-19T15:56:32.413Z,27.70
2023-03-19T16:01:36.363Z,23.90
2023-03-19T16:06:40.860Z,22.50
2023-03-19T16:11:45.788Z,19.80
2023-03-19T16:16:49.662Z,16.60
2023-03-19T16:21:52.625Z,21.50
2023-03-19T16:26:57.985Z,21.80
2023-03-19T16:32:04.483Z,23.30
2023-03-19T16:37:49.923Z,21.10
2023-03-19T16:43:07.524Z,20.70
2023-03-19T16:48:10.825Z,18.20
2023-03-19T16:53:26.537Z,19.20
2023-03-19T16:58:38.343Z,23.80
2023-03-19T17:03:41.254Z,29.40
2023-03-19T17:08:45.392Z,27.90
2023-03-19T17:13:48.283Z,24.50
2023-03-19T17:18:51.496Z,24.80
2023-03-19T17:23:55.815Z,28.50
2023-03-19T17:28:58.854Z,30.70
2023-03-19T17:34:12.818Z,28.90
2023-03-19T17:39:15.707Z,23.40
2023-03-19T17:44:18.617Z,22.80
2023-03-19T17:49:32.886Z,24.20
2023-03-19T17:54:35.793Z,21.20
2023-03-19T17:59:39.104Z,22.70
2023-03-19T18:04:42.241Z,22.50
2023-03-19T18:09:45.219Z,23.80
2023-03-19T18:14:48.126Z,21.60
2023-03-19T18:19:52.572Z,25.20
2023-03-19T18:24:55.598Z,18.20
2023-03-19T18:29:59.041Z,23.00
2023-03-19T18:35:03.746Z,24.60
2023-03-19T18:40:07.982Z,24.90
2023-03-19T18:45:15.493Z,25.70
2023-03-19T18:50:22.893Z,26.10
2023-03-19T18:55:31.088Z,23.70
2023-03-19T19:00:35.986Z,23.40
2023-03-19T19:05:39.289Z,22.00
2023-03-19T19:10:46.612Z,20.00
2023-03-19T19:15:49.974Z,23.40
2023-03-19T19:20:54.019Z,20.10
2023-03-19T19:25:57.302Z,22.50
2023-03-19T19:31:01.218Z,20.10
2023-03-19T19:36:05.625Z,18.80
2023-03-19T19:41:17.740Z,20.30
2023-03-19T19:46:23.124Z,18.90
2023-03-19T19:51:29.495Z,17.80
2023-03-19T19:56:32.604Z,19.70
2023-03-19T20:01:35.669Z,18.50
2023-03-19T20:06:38.607Z,19.50
2023-03-19T20:11:41.516Z,23.30
2023-03-19T20:16:44.522Z,25.60
2023-03-19T20:21:47.629Z,22.90
2023-03-19T20:26:50.659Z,25.30
2023-03-19T20:31:53.742Z,24.90
2023-03-19T20:36:56.647Z,27.70
2023-03-19T20:42:00.162Z,27.50
2023-03-19T20:47:03.078Z,32.40
2023-03-19T20:52:06.077Z,32.40
2023-03-19T20:57:30.949Z,34.00
2023-03-19T21:02:33.924Z,28.90
2023-03-19T21:07:37.122Z,27.90
2023-03-19T21:12:40.009Z,31.00
2023-03-19T21:17:44.224Z,36.40
2023-03-19T21:22:50.724Z,33.90
2023-03-19T21:27:58.352Z,28.50
2023-03-19T21:33:01.749Z,33.00
2023-03-19T21:38:04.776Z,29.70
2023-03-19T21:43:16.380Z,26.70
2023-03-19T21:48:33.826Z,25.80
2023-03-19T21:53:36.633Z,26.70
2023-03-19T21:58:39.947Z,25.80
2023-03-19T22:03:42.951Z,23.50
2023-03-19T22:08:46.979Z,26.90
2023-03-19T22:13:50.004Z,23.00
2023-03-19T22:18:53.334Z,23.20
2023-03-19T22:23:56.302Z,24.20
2023-03-19T22:29:02.282Z,22.80
2023-03-19T22:34:05.505Z,24.50
2023-03-19T22:39:08.773Z,23.70
2023-03-19T22:44:28.727Z,26.70
2023-03-19T22:49:32.479Z,25.70
2023-03-19T22:54:35.556Z,26.80
2023-03-19T22:59:38.457Z,27.70
2023-03-19T23:04:41.726Z,26.70
2023-03-19T23:09:44.671Z,27.80
2023-03-19T23:14:47.567Z,24.80
2023-03-19T23:19:51.504Z,25.70
2023-03-19T23:24:54.506Z,26.90
2023-03-19T23:29:57.510Z,27.20
2023-03-19T23:35:01.903Z,30.70
2023-03-19T23:40:05.957Z,28.00
2023-03-19T23:45:23.934Z,27.60
2023-03-19T23:50:27.354Z,27.70
2023-03-19T23:55:32.050Z,27.90
